createdAt,value
2023-02-09T00:01:30.741Z,-7.90
2023-02-09T00:03:59.336Z,-7.97
2023-02-09T00:06:27.257Z,-8.06
2023-02-09T00:08:54.441Z,-7.95
2023-02-09T00:11:48.770Z,-7.99
2023-02-09T00:14:19.704Z,-8.04
2023-02-09T00:16:49.258Z,-8.04
2023-02-09T00:19:17.203Z,-8.06
2023-02-09T00:21:45.325Z,-8.18
2023-02-09T00:24:12.676Z,-8.17
2023-02-09T00:26:40.589Z,-8.23
2023-02-09T00:29:08.645Z,-8.14
2023-02-09T00:31:36.357Z,-7.98
2023-02-09T00:34:05.061Z,-8.05
2023-02-09T00:36:33.086Z,-7.98
2023-02-09T00:39:01.053Z,-7.96
2023-02-09T00:41:47.195Z,-7.95
2023-02-09T00:44:15.282Z,-7.88
2023-02-09T00:46:42.382Z,-8.07
2023-02-09T00:49:09.576Z,-8.19
2023-02-09T00:51:36.735Z,-8.13
2023-02-09T00:54:04.405Z,-8.21
2023-02-09T00:56:31.779Z,-8.28
2023-02-09T00:59:00.422Z,-8.15
2023-02-09T01:01:27.705Z,-8.13
2023-02-09T01:03:55.026Z,-8.27
2023-02-09T01:06:22.186Z,-8.21
2023-02-09T01:08:50.951Z,-8.12
2023-02-09T01:11:18.822Z,-8.07
2023-02-09T01:13:47.261Z,-8.15
2023-02-09T01:16:16.823Z,-8.12
2023-02-09T01:18:45.138Z,-8.28
2023-02-09T01:21:18.940Z,-8.22
2023-02-09T01:23:47.553Z,-8.29
2023-02-09T01:26:16.700Z,-8.30
2023-02-09T01:28:44.737Z,-8.47
2023-02-09T01:31:27.475Z,-8.43
2023-02-09T01:33:57.416Z,-8.57
2023-02-09T01:36:29.392Z,-8.56
2023-02-09T01:38:58.911Z,-8.62
2023-02-09T01:41:26.778Z,-8.66
2023-02-09T01:44:01.857Z,-8.67
2023-02-09T01:46:35.671Z,-8.80
2023-02-09T01:49:18.364Z,-8.77
2023-02-09T01:51:51.108Z,-8.69
2023-02-09T01:54:23.057Z,-8.86
2023-02-09T01:56:55.644Z,-8.86
2023-02-09T01:59:23.436Z,-8.91
2023-02-09T02:01:52.449Z,-8.96
2023-02-09T02:04:21.704Z,-8.99
2023-02-09T02:06:49.203Z,-9.08
2023-02-09T02:09:17.865Z,-9.02
2023-02-09T02:11:47.986Z,-9.06
2023-02-09T02:14:34.202Z,-9.01
2023-02-09T02:17:22.640Z,-8.96
2023-02-09T02:20:22.089Z,-9.01
2023-02-09T02:23:17.183Z,-9.07
2023-02-09T02:26:21.667Z,-9.11
2023-02-09T02:29:26.180Z,-9.14
2023-02-09T02:32:27.634Z,-9.21
2023-02-09T02:35:03.655Z,-9.22
2023-02-09T02:37:45.898Z,-9.04
2023-02-09T02:40:22.102Z,-8.97
2023-02-09T02:43:00.258Z,-8.90
2023-02-09T02:45:39.433Z,-8.90
2023-02-09T02:48:09.487Z,-8.79
2023-02-09T02:50:45.870Z,-8.99
2023-02-09T02:53:16.341Z,-8.82
2023-02-09T02:55:47.281Z,-8.86
2023-02-09T02:58:17.161Z,-8.95
2023-02-09T03:00:52.364Z,-9.00
2023-02-09T03:03:23.178Z,-9.10
2023-02-09T03:05:51.601Z,-9.06
2023-02-09T03:08:18.659Z,-9.00
2023-02-09T03:10:46.587Z,-8.97
2023-02-09T03:13:38.344Z,-8.98
2023-02-09T03:16:14.572Z,-9.07
2023-02-09T03:19:06.518Z,-9.21
2023-02-09T03:21:52.598Z,-9.26
2023-02-09T03:24:41.510Z,-9.35
2023-02-09T03:27:32.219Z,-9.43
2023-02-09T03:30:04.446Z,-9.53
2023-02-09T03:32:36.864Z,-9.50
2023-02-09T03:35:05.678Z,-9.53
2023-02-09T03:37:33.375Z,-9.41
2023-02-09T03:40:00.550Z,-9.59
2023-02-09T03:42:27.637Z,-9.68
2023-02-09T03:44:55.117Z,-9.68
2023-02-09T03:47:22.490Z,-9.76
2023-02-09T03:49:49.579Z,-9.85
2023-02-09T03:52:17.116Z,-9.67
2023-02-09T03:54:44.544Z,-9.57
2023-02-09T03:57:11.722Z,-9.72
2023-02-09T03:59:39.871Z,-9.89
2023-02-09T04:02:08.922Z,-9.78
2023-02-09T04:04:37.284Z,-9.80
2023-02-09T04:07:05.006Z,-9.78
2023-02-09T04:09:32.196Z,-9.99
2023-02-09T04:11:59.279Z,-9.92
2023-02-09T04:14:26.881Z,-9.91
2023-02-09T04:16:53.952Z,-9.99
2023-02-09T04:19:21.139Z,-9.89
2023-02-09T04:21:48.292Z,-9.97
2023-02-09T04:24:21.935Z,-9.98
2023-02-09T04:26:49.100Z,-9.89
2023-02-09T04:29:16.360Z,-10.09
2023-02-09T04:31:43.448Z,-9.95
2023-02-09T04:34:11.029Z,-9.96
2023-02-09T04:36:38.117Z,-9.85
2023-02-09T04:39:05.162Z,-10.01
2023-02-09T04:41:32.494Z,-9.91
2023-02-09T04:44:00.840Z,-9.93
2023-02-09T04:46:29.679Z,-9.98
2023-02-09T04:48:57.010Z,-9.94
2023-02-09T04:51:24.144Z,-9.90
2023-02-09T04:53:51.378Z,-9.89
2023-02-09T04:56:18.573Z,-9.96
2023-02-09T04:59:04.297Z,-9.87
2023-02-09T05:01:31.961Z,-9.89
2023-02-09T05:03:59.192Z,-9.90
2023-02-09T05:06:26.513Z,-9.97
2023-02-09T05:08:53.636Z,-9.77
2023-02-09T05:11:20.943Z,-9.84
2023-02-09T05:13:48.293Z,-9.88
2023-02-09T05:16:17.867Z,-9.87
2023-02-09T05:18:45.099Z,-9.98
2023-02-09T05:21:14.344Z,-9.98
2023-02-09T05:23:41.860Z,-9.96
2023-02-09T05:26:09.517Z,-10.01
2023-02-09T05:28:37.028Z,-9.87
2023-02-09T05:31:04.360Z,-9.93
2023-02-09T05:33:31.526Z,-9.93
2023-02-09T05:35:58.750Z,-9.78
2023-02-09T05:38:25.954Z,-9.91
2023-02-09T05:40:53.159Z,-9.70
2023-02-09T05:43:20.209Z,-9.86
2023-02-09T05:45:47.557Z,-9.64
2023-02-09T05:48:14.663Z,-9.57
2023-02-09T05:50:41.812Z,-9.51
2023-02-09T05:53:09.695Z,-9.44
2023-02-09T05:55:36.954Z,-9.39
2023-02-09T05:58:04.246Z,-9.34
2023-02-09T06:00:31.721Z,-9.33
2023-02-09T06:02:59.182Z,-9.27
2023-02-09T06:05:27.407Z,-9.20
2023-02-09T06:07:54.477Z,-9.26
2023-02-09T06:10:22.202Z,-9.05
2023-02-09T06:12:49.668Z,-9.02
2023-02-09T06:15:16.859Z,-8.84
2023-02-09T06:17:44.584Z,-8.87
2023-02-09T06:20:12.103Z,-8.69
2023-02-09T06:22:39.096Z,-8.52
2023-02-09T06:25:06.817Z,-8.39
2023-02-09T06:27:33.954Z,-8.26
2023-02-09T06:30:01.072Z,-8.26
2023-02-09T06:32:29.053Z,-8.24
2023-02-09T06:34:56.341Z,-8.21
2023-02-09T06:37:23.473Z,-8.20
2023-02-09T06:39:50.586Z,-7.99
2023-02-09T06:42:17.796Z,-7.96
2023-02-09T06:44:44.963Z,-7.84
2023-02-09T06:47:12.190Z,-7.92
2023-02-09T06:49:39.414Z,-7.75
2023-02-09T06:52:06.633Z,-7.84
2023-02-09T06:54:33.861Z,-7.77
2023-02-09T06:57:01.007Z,-7.70
2023-02-09T06:59:28.192Z,-7.70
2023-02-09T07:01:55.382Z,-7.64
2023-02-09T07:04:23.585Z,-7.57
2023-02-09T07:06:50.658Z,-7.32
2023-02-09T07:09:17.972Z,-7.30
2023-02-09T07:11:45.060Z,-7.26
2023-02-09T07:14:12.136Z,-7.17
2023-02-09T07:16:39.351Z,-7.09
2023-02-09T07:19:06.410Z,-7.19
2023-02-09T07:21:33.962Z,-7.22
2023-02-09T07:24:01.167Z,-7.04
2023-02-09T07:26:28.818Z,-7.01
2023-02-09T07:28:57.530Z,-6.71
2023-02-09T07:31:25.331Z,-6.67
2023-02-09T07:33:53.512Z,-6.69
2023-02-09T07:36:20.529Z,-6.52
2023-02-09T07:38:47.622Z,-6.53
2023-02-09T07:41:20.717Z,-6.39
2023-02-09T07:43:47.987Z,-6.44
2023-02-09T07:46:17.535Z,-6.46
2023-02-09T07:48:45.344Z,-6.36
2023-02-09T07:51:17.488Z,-6.33
2023-02-09T07:53:44.544Z,-6.34
2023-02-09T07:56:12.022Z,-6.12
2023-02-09T07:58:39.746Z,-6.04
2023-02-09T08:01:09.964Z,-6.09
2023-02-09T08:03:38.709Z,-5.92
2023-02-09T08:06:30.392Z,-5.71
2023-02-09T08:09:05.530Z,-5.66
2023-02-09T08:11:41.104Z,-5.52
2023-02-09T08:14:27.364Z,-5.59
2023-02-09T08:17:20.272Z,-5.64
2023-02-09T08:19:56.745Z,-5.43
2023-02-09T08:22:28.382Z,-5.38
2023-02-09T08:24:56.354Z,-5.22
2023-02-09T08:27:23.541Z,-5.06
2023-02-09T08:29:50.989Z,-4.95
2023-02-09T08:32:18.284Z,-4.85
2023-02-09T08:34:45.469Z,-4.73
2023-02-09T08:37:12.692Z,-4.67
2023-02-09T08:39:39.803Z,-4.78
2023-02-09T08:42:06.938Z,-4.53
2023-02-09T08:44:34.105Z,-4.39
2023-02-09T08:47:01.695Z,-4.25
2023-02-09T08:49:29.152Z,-4.11
2023-02-09T08:51:56.315Z,-3.94
2023-02-09T08:54:23.573Z,-3.90
2023-02-09T08:56:50.997Z,-3.81
2023-02-09T08:59:20.093Z,-3.64
2023-02-09T09:01:47.586Z,-3.60
2023-02-09T09:04:14.849Z,-3.58
2023-02-09T09:06:41.947Z,-3.48
2023-02-09T09:09:09.043Z,-3.39
2023-02-09T09:11:36.930Z,-3.34
2023-02-09T09:14:04.115Z,-3.30
2023-02-09T09:16:31.395Z,-3.40
2023-02-09T09:18:58.574Z,-3.31
2023-02-09T09:21:25.623Z,-3.24
2023-02-09T09:23:52.775Z,-3.04
2023-02-09T09:26:19.874Z,-2.91
2023-02-09T09:28:51.137Z,-2.89
2023-02-09T09:31:19.451Z,-2.95
2023-02-09T09:33:46.915Z,-3.22
2023-02-09T09:36:14.917Z,-3.28
2023-02-09T09:38:42.580Z,-3.30
2023-02-09T09:41:34.755Z,-3.46
2023-02-09T09:44:03.118Z,-3.30
2023-02-09T09:46:37.173Z,-3.30
2023-02-09T09:49:05.197Z,-3.24
2023-02-09T09:51:42.035Z,-3.22
2023-02-09T09:54:20.301Z,-3.29
2023-02-09T09:56:48.438Z,-3.23
2023-02-09T09:59:25.709Z,-3.13
2023-02-09T10:01:55.426Z,-3.25
2023-02-09T10:04:22.864Z,-3.20
2023-02-09T10:07:17.451Z,-3.19
2023-02-09T10:09:52.007Z,-3.24
2023-02-09T10:12:34.138Z,-3.16
2023-02-09T10:15:42.624Z,-3.16
2023-02-09T10:18:15.278Z,-3.19
2023-02-09T10:20:50.545Z,-2.91
2023-02-09T10:23:20.428Z,-2.87
2023-02-09T10:25:47.635Z,-2.93
2023-02-09T10:28:24.883Z,-2.83
2023-02-09T10:30:54.353Z,-2.93
2023-02-09T10:33:21.870Z,-3.00
2023-02-09T10:35:58.713Z,-2.79
2023-02-09T10:38:33.149Z,-2.74
2023-02-09T10:41:01.737Z,-2.70
2023-02-09T10:43:32.634Z,-2.70
2023-02-09T10:46:03.152Z,-2.69
2023-02-09T10:48:41.116Z,-2.65
2023-02-09T10:51:15.199Z,-2.55
2023-02-09T10:53:58.525Z,-2.67
2023-02-09T10:56:43.685Z,-2.58
2023-02-09T10:59:24.084Z,-2.60
2023-02-09T11:02:00.233Z,-2.55
2023-02-09T11:04:41.368Z,-2.43
2023-02-09T11:07:18.072Z,-2.34
2023-02-09T11:09:56.252Z,-2.44
2023-02-09T11:12:25.250Z,-2.31
2023-02-09T11:14:52.319Z,-2.39
2023-02-09T11:17:45.767Z,-2.19
2023-02-09T11:20:34.101Z,-2.53
2023-02-09T11:23:25.111Z,-2.28
2023-02-09T11:26:00.107Z,-1.98
2023-02-09T11:28:50.518Z,-2.03
2023-02-09T11:31:44.486Z,-2.07
2023-02-09T11:34:36.730Z,-2.01
2023-02-09T11:37:37.301Z,-1.96
2023-02-09T11:40:07.426Z,-1.96
2023-02-09T11:42:46.257Z,-2.04
2023-02-09T11:45:37.752Z,-2.04
2023-02-09T11:48:20.165Z,-2.04
2023-02-09T11:50:56.463Z,-2.00
2023-02-09T11:53:39.827Z,-1.87
2023-02-09T11:56:11.588Z,-1.94
2023-02-09T11:58:41.747Z,-1.74
2023-02-09T12:01:34.353Z,-1.70
2023-02-09T12:04:23.015Z,-1.64
2023-02-09T12:06:56.207Z,-1.67
2023-02-09T12:09:47.591Z,-1.67
2023-02-09T12:12:52.440Z,-1.76
2023-02-09T12:15:42.455Z,-1.76
2023-02-09T12:18:23.099Z,-1.87
2023-02-09T12:20:57.093Z,-1.89
2023-02-09T12:23:43.486Z,-1.62
2023-02-09T12:26:16.400Z,-1.53
2023-02-09T12:29:21.961Z,-1.32
2023-02-09T12:32:04.423Z,-1.11
2023-02-09T12:34:52.484Z,-0.94
2023-02-09T12:37:28.997Z,-0.70
2023-02-09T12:40:07.883Z,-0.63
2023-02-09T12:43:10.434Z,-0.51
2023-02-09T12:45:45.194Z,-0.38
2023-02-09T12:48:21.409Z,-0.35
2023-02-09T12:50:52.312Z,-0.17
2023-02-09T12:53:22.575Z,-0.01
2023-02-09T12:55:59.943Z,0.07
2023-02-09T12:58:46.216Z,0.12
2023-02-09T13:01:15.842Z,0.16
2023-02-09T13:03:58.398Z,0.04
2023-02-09T13:06:46.636Z,0.10
2023-02-09T13:09:23.754Z,0.15
2023-02-09T13:11:58.114Z,0.14
2023-02-09T13:14:26.164Z,0.27
2023-02-09T13:17:17.189Z,0.30
2023-02-09T13:20:04.072Z,0.44
2023-02-09T13:22:53.054Z,0.22
2023-02-09T13:25:36.527Z,0.24
2023-02-09T13:28:26.798Z,0.18
2023-02-09T13:30:54.388Z,0.14
2023-02-09T13:34:00.593Z,0.11
2023-02-09T13:36:35.680Z,0.11
2023-02-09T13:39:07.268Z,-0.46
2023-02-09T13:41:41.026Z,-0.41
2023-02-09T13:44:26.391Z,-0.39
2023-02-09T13:46:56.608Z,-0.64
2023-02-09T13:49:24.988Z,-0.82
2023-02-09T13:52:15.438Z,-0.67
2023-02-09T13:54:43.675Z,-0.84
2023-02-09T13:57:32.671Z,-1.08
2023-02-09T14:00:09.514Z,-0.87
2023-02-09T14:02:51.072Z,-0.87
2023-02-09T14:05:26.022Z,-0.90
2023-02-09T14:07:54.122Z,-0.99
2023-02-09T14:10:21.973Z,-1.20
2023-02-09T14:13:19.213Z,-1.04
2023-02-09T14:16:08.955Z,-1.15
2023-02-09T14:18:54.178Z,-1.13
2023-02-09T14:21:29.973Z,-1.15
2023-02-09T14:23:59.791Z,-1.05
2023-02-09T14:26:45.404Z,-1.00
2023-02-09T14:29:28.472Z,-1.04
2023-02-09T14:32:31.825Z,-1.00
2023-02-09T14:35:08.858Z,-1.07
2023-02-09T14:37:37.200Z,-0.95
2023-02-09T14:40:07.081Z,-0.97
2023-02-09T14:42:39.466Z,-1.13
2023-02-09T14:45:16.133Z,-1.19
2023-02-09T14:47:44.800Z,-1.41
2023-02-09T14:50:19.640Z,-1.32
2023-02-09T14:52:49.722Z,-1.41
2023-02-09T14:55:25.085Z,-1.36
2023-02-09T14:57:52.525Z,-1.56
2023-02-09T15:00:24.796Z,-1.62
2023-02-09T15:02:53.400Z,-1.57
2023-02-09T15:05:22.025Z,-1.67
2023-02-09T15:07:56.044Z,-1.68
2023-02-09T15:10:30.997Z,-1.67
2023-02-09T15:12:59.073Z,-1.69
2023-02-09T15:15:26.284Z,-1.85
2023-02-09T15:17:56.702Z,-1.82
2023-02-09T15:20:25.359Z,-1.90
2023-02-09T15:22:54.256Z,-1.88
2023-02-09T15:25:23.255Z,-2.04
2023-02-09T15:27:53.811Z,-1.91
2023-02-09T15:30:33.500Z,-1.92
2023-02-09T15:33:01.220Z,-1.96
2023-02-09T15:35:28.938Z,-1.86
2023-02-09T15:37:59.845Z,-1.89
2023-02-09T15:40:50.597Z,-1.85
2023-02-09T15:43:38.678Z,-1.82
2023-02-09T15:46:09.604Z,-1.93
2023-02-09T15:48:37.042Z,-2.10
2023-02-09T15:51:04.434Z,-2.07
2023-02-09T15:53:32.155Z,-2.12
2023-02-09T15:55:59.776Z,-2.05
2023-02-09T15:58:36.020Z,-2.02
2023-02-09T16:01:04.519Z,-2.08
2023-02-09T16:03:35.909Z,-2.04
2023-02-09T16:06:11.430Z,-2.05
2023-02-09T16:08:39.110Z,-2.13
2023-02-09T16:11:12.119Z,-2.27
2023-02-09T16:13:39.434Z,-2.36
2023-02-09T16:16:17.062Z,-2.24
2023-02-09T16:18:47.117Z,-2.23
2023-02-09T16:21:25.412Z,-2.34
2023-02-09T16:23:59.078Z,-2.35
2023-02-09T16:26:28.037Z,-2.38
2023-02-09T16:28:55.514Z,-2.41
2023-02-09T16:31:23.713Z,-2.30
2023-02-09T16:33:51.799Z,-2.49
2023-02-09T16:36:29.112Z,-2.67
2023-02-09T16:38:56.508Z,-2.62
2023-02-09T16:41:42.093Z,-2.58
2023-02-09T16:44:22.962Z,-2.55
2023-02-09T16:46:53.584Z,-2.59
2023-02-09T16:49:26.878Z,-2.42
2023-02-09T16:51:57.842Z,-2.46
2023-02-09T16:54:25.169Z,-2.45
2023-02-09T16:56:54.509Z,-2.59
2023-02-09T16:59:22.267Z,-2.75
2023-02-09T17:01:49.556Z,-2.62
2023-02-09T17:04:16.715Z,-2.69
2023-02-09T17:06:46.732Z,-2.80
2023-02-09T17:09:16.581Z,-2.73
2023-02-09T17:11:43.828Z,-2.83
2023-02-09T17:14:12.475Z,-2.74
2023-02-09T17:16:45.037Z,-2.76
2023-02-09T17:19:18.342Z,-2.82
2023-02-09T17:21:45.594Z,-2.78
2023-02-09T17:24:15.868Z,-2.65
2023-02-09T17:26:43.480Z,-2.53
2023-02-09T17:29:11.750Z,-2.62
2023-02-09T17:31:52.713Z,-2.86
2023-02-09T17:34:27.191Z,-2.82
2023-02-09T17:36:59.059Z,-2.90
2023-02-09T17:39:26.930Z,-3.02
2023-02-09T17:41:54.340Z,-2.91
2023-02-09T17:44:43.675Z,-2.95
2023-02-09T17:47:17.640Z,-2.91
2023-02-09T17:49:49.997Z,-2.95
2023-02-09T17:52:20.151Z,-2.91
2023-02-09T17:54:51.123Z,-2.69
2023-02-09T17:57:18.456Z,-2.77
2023-02-09T17:59:47.034Z,-2.84
2023-02-09T18:02:16.923Z,-2.77
2023-02-09T18:04:44.522Z,-2.78
2023-02-09T18:07:14.095Z,-2.87
2023-02-09T18:09:41.237Z,-2.88
2023-02-09T18:12:24.174Z,-2.89
2023-02-09T18:14:54.312Z,-2.85
2023-02-09T18:17:21.542Z,-2.85
2023-02-09T18:19:48.691Z,-2.89
2023-02-09T18:22:21.908Z,-2.88
2023-02-09T18:24:49.481Z,-2.85
2023-02-09T18:27:21.186Z,-2.82
2023-02-09T18:29:48.273Z,-3.04
2023-02-09T18:32:17.093Z,-2.95
2023-02-09T18:34:44.213Z,-3.02
2023-02-09T18:37:11.295Z,-3.02
2023-02-09T18:39:46.998Z,-3.06
2023-02-09T18:42:16.383Z,-3.01
2023-02-09T18:44:43.544Z,-3.10
2023-02-09T18:47:11.518Z,-3.02
2023-02-09T18:49:39.548Z,-3.11
2023-02-09T18:52:06.841Z,-3.11
2023-02-09T18:54:34.760Z,-3.03
2023-02-09T18:57:02.232Z,-3.14
2023-02-09T18:59:31.439Z,-3.00
2023-02-09T19:01:59.564Z,-3.06
2023-02-09T19:04:27.133Z,-3.18
2023-02-09T19:06:54.529Z,-3.20
2023-02-09T19:09:22.084Z,-3.13
2023-02-09T19:11:49.151Z,-3.27
2023-02-09T19:14:34.676Z,-3.23
2023-02-09T19:17:01.643Z,-2.93
2023-02-09T19:19:28.750Z,-3.27
2023-02-09T19:21:57.927Z,-3.27
2023-02-09T19:24:25.057Z,-3.23
2023-02-09T19:26:52.237Z,-3.29
2023-02-09T19:29:19.487Z,-3.08
2023-02-09T19:31:46.637Z,-3.15
2023-02-09T19:34:13.794Z,-3.21
2023-02-09T19:36:40.875Z,-3.24
2023-02-09T19:39:08.008Z,-3.41
2023-02-09T19:41:35.231Z,-3.50
2023-02-09T19:44:02.486Z,-3.47
2023-02-09T19:46:29.576Z,-3.42
2023-02-09T19:48:58.824Z,-3.53
2023-02-09T19:51:25.973Z,-3.62
2023-02-09T19:53:53.356Z,-3.58
2023-02-09T19:56:23.671Z,-3.65
2023-02-09T19:58:51.281Z,-3.77
2023-02-09T20:01:19.536Z,-3.59
2023-02-09T20:03:48.456Z,-3.50
2023-02-09T20:06:16.647Z,-3.42
2023-02-09T20:08:44.522Z,-3.64
2023-02-09T20:11:16.801Z,-3.47
2023-02-09T20:13:44.630Z,-3.73
2023-02-09T20:16:21.958Z,-3.48
2023-02-09T20:18:52.313Z,-3.83
2023-02-09T20:21:26.249Z,-3.54
2023-02-09T20:23:54.849Z,-3.62
2023-02-09T20:26:29.375Z,-3.75
2023-02-09T20:28:59.309Z,-3.56
2023-02-09T20:31:30.367Z,-3.73
2023-02-09T20:33:57.495Z,-3.62
2023-02-09T20:36:25.788Z,-3.72
2023-02-09T20:38:53.377Z,-3.68
2023-02-09T20:41:20.515Z,-3.75
2023-02-09T20:44:06.106Z,-3.74
2023-02-09T20:46:52.680Z,-3.81
2023-02-09T20:49:20.153Z,-3.74
2023-02-09T20:51:47.933Z,-3.76
2023-02-09T20:54:15.409Z,-3.80
2023-02-09T20:56:43.710Z,-3.74
2023-02-09T20:59:13.588Z,-3.71
2023-02-09T21:01:40.860Z,-3.64
2023-02-09T21:04:09.140Z,-3.68
2023-02-09T21:06:37.434Z,-3.70
2023-02-09T21:09:06.359Z,-3.67
2023-02-09T21:11:33.563Z,-3.76
2023-02-09T21:14:01.533Z,-3.68
2023-02-09T21:16:29.539Z,-3.56
2023-02-09T21:18:58.436Z,-3.54
2023-02-09T21:21:27.149Z,-3.48
2023-02-09T21:23:54.417Z,-3.50
2023-02-09T21:26:24.173Z,-3.46
2023-02-09T21:28:56.237Z,-3.31
2023-02-09T21:31:26.958Z,-3.28
2023-02-09T21:33:54.795Z,-3.31
2023-02-09T21:36:21.878Z,-3.57
2023-02-09T21:38:49.062Z,-3.43
2023-02-09T21:41:40.871Z,-3.36
2023-02-09T21:44:13.145Z,-3.49
2023-02-09T21:46:40.211Z,-3.42
2023-02-09T21:49:07.528Z,-3.35
2023-02-09T21:51:35.146Z,-3.26
2023-02-09T21:54:02.331Z,-3.42
2023-02-09T21:56:29.519Z,-3.37
2023-02-09T21:58:56.759Z,-3.47
2023-02-09T22:01:23.956Z,-3.39
2023-02-09T22:03:58.062Z,-3.37
2023-02-09T22:06:26.241Z,-3.38
2023-02-09T22:08:53.875Z,-3.52
2023-02-09T22:11:20.938Z,-3.48
2023-02-09T22:13:48.098Z,-3.52
2023-02-09T22:16:21.047Z,-3.42
2023-02-09T22:18:48.452Z,-3.37
2023-02-09T22:21:15.987Z,-3.31
2023-02-09T22:23:43.281Z,-3.46
2023-02-09T22:26:13.084Z,-3.61
2023-02-09T22:28:41.323Z,-3.41
2023-02-09T22:31:11.241Z,-3.37
2023-02-09T22:33:39.090Z,-3.24
2023-02-09T22:36:08.815Z,-3.35
2023-02-09T22:38:36.327Z,-3.34
2023-02-09T22:41:08.397Z,-3.38
2023-02-09T22:43:35.578Z,-3.49
2023-02-09T22:46:02.624Z,-3.47
2023-02-09T22:48:29.743Z,-3.49
2023-02-09T22:50:56.742Z,-3.38
2023-02-09T22:53:24.105Z,-3.42
2023-02-09T22:55:51.243Z,-3.48
2023-02-09T22:58:18.339Z,-3.56
2023-02-09T23:00:45.461Z,-3.71
2023-02-09T23:03:12.558Z,-3.75
2023-02-09T23:05:39.709Z,-3.66
2023-02-09T23:08:06.719Z,-3.81
2023-02-09T23:10:33.828Z,-3.86
2023-02-09T23:13:00.852Z,-3.91
2023-02-09T23:15:28.151Z,-3.98
2023-02-09T23:17:56.579Z,-3.91
2023-02-09T23:20:24.896Z,-3.85
2023-02-09T23:22:54.486Z,-4.00
2023-02-09T23:25:29.358Z,-3.89
2023-02-09T23:27:56.479Z,-3.98
2023-02-09T23:30:24.402Z,-4.00
2023-02-09T23:32:51.488Z,-4.12
2023-02-09T23:35:18.682Z,-4.09
2023-02-09T23:37:45.700Z,-4.19
2023-02-09T23:40:12.807Z,-4.23
2023-02-09T23:42:40.050Z,-4.25
2023-02-09T23:45:07.622Z,-4.26
2023-02-09T23:47:35.177Z,-4.25
2023-02-09T23:50:02.235Z,-4.22
2023-02-09T23:52:30.351Z,-4.20
2023-02-09T23:54:57.461Z,-4.17
2023-02-09T23:57:24.724Z,-4.15
2023-02-09T23:59:51.732Z,-4.29
